Airfield :
LOGIN :

Register | Disclaimer

   EN    FR    IT 

 










Legend :    VFR   Marginal VFR   IFR   Intensive IFR   Very Intensive IFR
Visi :
Ceiling :
>= 8 km
>= 3000ft
5 to 8 km
1000 to 3000 ft
1500m to 5 km
500 to 1000 ft
800 to 1500m
200 to 500 ft
< 800m
< 200 ft
Symbols :   Thunderstorms  Fog  Heavy snow  Heavy precipitations  Wind > 20 kt
SIGMETs :     Misc.  Thunderstorms  Icing  Turbulence  Mountain Waves  Volcanic Ashes






- Airport Elevation : 245 ft
- IATA code : BIQ


LFBZ - Biarritz

CURRENT METAR :
  • 301300Z AUTO 09010KT 9999 FEW013 12/08 Q1016 NOSIG

EXPIRED METARs :
  • 301230Z AUTO 08009KT CAVOK 11/09 Q1017 NOSIG
  • 301200Z AUTO 09008KT 9999 FEW007 11/09 Q1017 TEMPO BKN006
  • 301130Z AUTO 09010KT 9999 BKN005 10/09 Q1017 BECMG SCT010
  • 301100Z AUTO 07010KT 9999 BKN005 10/09 Q1017 BECMG SCT010
  • 301030Z AUTO 08007KT 9999 BKN005 BKN200 10/10 Q1018 BECMG SCT010

TAF TAF LFBZ
Valid from the 30 at 12:00 until the 01 at 12:00 UTC


301100Z 3012/0112 09008KT CAVOK
PROB30
TEMPO 3012/3013 BKN006
TEMPO 3021/0110 BKN008
TEMPO 0100/0108 3000 BR OVC003
BECMG 0110/0112 BKN015



MET'MAP, your aeronautical weather chart ! - Copyright ORBIFLY December 2007 - Disclaimer

ORBIFLY MET'MAP TEAM :

Programming & Development : Alexandra Zaïnal
Original concept : Baudouin d'Aumeries
Technical & hardware support : Manuel Goepfert
Assistance : Marc-Olivier Méhu




SOURCES & CREDITS :

   NOAA